sensor_id;sensor_type;location;lat;lon;timestamp;P1;durP1;ratioP1;P2;durP2;ratioP2
22060;SDS011;11194;48.092;-1.382;2023-06-10T00:01:40;31.02;;;18.70;;
22060;SDS011;11194;48.092;-1.382;2023-06-10T00:04:06;29.88;;;17.73;;
22060;SDS011;11194;48.092;-1.382;2023-06-10T00:06:32;28.05;;;17.48;;
22060;SDS011;11194;48.092;-1.382;2023-06-10T00:09:02;29.30;;;17.83;;
22060;SDS011;11194;48.092;-1.382;2023-06-10T00:11:30;33.28;;;20.02;;
22060;SDS011;11194;48.092;-1.382;2023-06-10T00:13:56;27.90;;;17.42;;
22060;SDS011;11194;48.092;-1.382;2023-06-10T00:16:22;33.80;;;19.05;;
22060;SDS011;11194;48.092;-1.382;2023-06-10T00:18:48;35.67;;;19.65;;
22060;SDS011;11194;48.092;-1.382;2023-06-10T00:21:16;31.35;;;19.50;;
22060;SDS011;11194;48.092;-1.382;2023-06-10T00:23:42;35.08;;;18.95;;
22060;SDS011;11194;48.092;-1.382;2023-06-10T00:26:08;29.80;;;17.77;;
22060;SDS011;11194;48.092;-1.382;2023-06-10T00:28:35;32.28;;;19.77;;
22060;SDS011;11194;48.092;-1.382;2023-06-10T00:31:01;30.90;;;19.13;;
22060;SDS011;11194;48.092;-1.382;2023-06-10T00:33:29;31.15;;;20.45;;
22060;SDS011;11194;48.092;-1.382;2023-06-10T00:35:55;33.92;;;20.08;;
22060;SDS011;11194;48.092;-1.382;2023-06-10T00:38:22;31.50;;;20.20;;
22060;SDS011;11194;48.092;-1.382;2023-06-10T00:40:48;33.10;;;21.25;;
22060;SDS011;11194;48.092;-1.382;2023-06-10T00:43:14;33.08;;;20.15;;
22060;SDS011;11194;48.092;-1.382;2023-06-10T00:45:40;33.28;;;20.08;;
22060;SDS011;11194;48.092;-1.382;2023-06-10T00:48:06;35.42;;;20.70;;
22060;SDS011;11194;48.092;-1.382;2023-06-10T00:50:33;33.17;;;21.13;;
22060;SDS011;11194;48.092;-1.382;2023-06-10T00:52:59;33.08;;;20.88;;
22060;SDS011;11194;48.092;-1.382;2023-06-10T00:55:25;32.92;;;20.45;;
22060;SDS011;11194;48.092;-1.382;2023-06-10T00:57:52;35.97;;;19.98;;
22060;SDS011;11194;48.092;-1.382;2023-06-10T01:00:19;35.80;;;20.85;;
22060;SDS011;11194;48.092;-1.382;2023-06-10T01:02:45;36.72;;;21.13;;
22060;SDS011;11194;48.092;-1.382;2023-06-10T01:05:11;35.47;;;20.63;;
22060;SDS011;11194;48.092;-1.382;2023-06-10T01:07:54;34.30;;;20.02;;
22060;SDS011;11194;48.092;-1.382;2023-06-10T01:10:29;34.08;;;19.92;;
22060;SDS011;11194;48.092;-1.382;2023-06-10T01:12:59;33.20;;;19.98;;
22060;SDS011;11194;48.092;-1.382;2023-06-10T01:15:28;32.13;;;19.88;;
22060;SDS011;11194;48.092;-1.382;2023-06-10T01:17:56;34.17;;;20.70;;
22060;SDS011;11194;48.092;-1.382;2023-06-10T01:20:22;33.58;;;20.80;;
22060;SDS011;11194;48.092;-1.382;2023-06-10T01:22:49;37.38;;;21.60;;
22060;SDS011;11194;48.092;-1.382;2023-06-10T01:25:16;36.58;;;21.15;;
22060;SDS011;11194;48.092;-1.382;2023-06-10T01:27:43;40.47;;;21.83;;
22060;SDS011;11194;48.092;-1.382;2023-06-10T01:30:12;36.97;;;21.42;;
22060;SDS011;11194;48.092;-1.382;2023-06-10T01:32:43;36.05;;;20.00;;
22060;SDS011;11194;48.092;-1.382;2023-06-10T01:35:10;37.65;;;20.92;;
22060;SDS011;11194;48.092;-1.382;2023-06-10T01:37:37;35.90;;;20.40;;
22060;SDS011;11194;48.092;-1.382;2023-06-10T01:40:05;38.92;;;21.58;;
22060;SDS011;11194;48.092;-1.382;2023-06-10T01:42:32;36.70;;;21.20;;
22060;SDS011;11194;48.092;-1.382;2023-06-10T01:44:58;36.53;;;20.50;;
22060;SDS011;11194;48.092;-1.382;2023-06-10T01:47:24;36.88;;;21.17;;
22060;SDS011;11194;48.092;-1.382;2023-06-10T01:49:50;34.03;;;20.27;;
22060;SDS011;11194;48.092;-1.382;2023-06-10T01:52:16;39.20;;;20.38;;
22060;SDS011;11194;48.092;-1.382;2023-06-10T01:54:43;45.03;;;21.10;;
22060;SDS011;11194;48.092;-1.382;2023-06-10T01:57:09;38.95;;;21.25;;
22060;SDS011;11194;48.092;-1.382;2023-06-10T01:59:35;39.33;;;20.00;;
22060;SDS011;11194;48.092;-1.382;2023-06-10T02:02:03;37.03;;;21.13;;
22060;SDS011;11194;48.092;-1.382;2023-06-10T02:04:29;36.53;;;20.38;;
22060;SDS011;11194;48.092;-1.382;2023-06-10T02:06:55;36.08;;;19.98;;
22060;SDS011;11194;48.092;-1.382;2023-06-10T02:09:22;33.13;;;20.30;;
22060;SDS011;11194;48.092;-1.382;2023-06-10T02:11:48;35.47;;;19.30;;
22060;SDS011;11194;48.092;-1.382;2023-06-10T02:14:14;34.17;;;18.90;;
22060;SDS011;11194;48.092;-1.382;2023-06-10T02:16:40;32.80;;;19.48;;
22060;SDS011;11194;48.092;-1.382;2023-06-10T02:19:06;33.10;;;19.75;;
22060;SDS011;11194;48.092;-1.382;2023-06-10T02:21:32;31.98;;;18.55;;
22060;SDS011;11194;48.092;-1.382;2023-06-10T02:24:01;38.20;;;19.67;;
22060;SDS011;11194;48.092;-1.382;2023-06-10T02:26:28;39.35;;;20.88;;
22060;SDS011;11194;48.092;-1.382;2023-06-10T02:28:54;38.75;;;20.25;;
22060;SDS011;11194;48.092;-1.382;2023-06-10T02:31:20;34.88;;;20.33;;
22060;SDS011;11194;48.092;-1.382;2023-06-10T02:33:46;32.22;;;19.48;;
22060;SDS011;11194;48.092;-1.382;2023-06-10T02:36:12;31.27;;;19.90;;
22060;SDS011;11194;48.092;-1.382;2023-06-10T02:38:40;34.95;;;20.17;;
22060;SDS011;11194;48.092;-1.382;2023-06-10T02:41:07;34.47;;;21.00;;
22060;SDS011;11194;48.092;-1.382;2023-06-10T02:43:33;36.28;;;21.27;;
22060;SDS011;11194;48.092;-1.382;2023-06-10T02:45:59;38.13;;;21.10;;
22060;SDS011;11194;48.092;-1.382;2023-06-10T02:48:25;35.92;;;20.70;;
22060;SDS011;11194;48.092;-1.382;2023-06-10T02:50:52;35.92;;;20.05;;
22060;SDS011;11194;48.092;-1.382;2023-06-10T02:53:18;37.33;;;21.58;;
22060;SDS011;11194;48.092;-1.382;2023-06-10T02:55:44;34.10;;;21.35;;
22060;SDS011;11194;48.092;-1.382;2023-06-10T02:58:10;36.50;;;21.17;;
22060;SDS011;11194;48.092;-1.382;2023-06-10T03:00:36;30.73;;;20.00;;
22060;SDS011;11194;48.092;-1.382;2023-06-10T03:03:05;37.47;;;21.08;;
22060;SDS011;11194;48.092;-1.382;2023-06-10T03:05:32;35.88;;;20.45;;
22060;SDS011;11194;48.092;-1.382;2023-06-10T03:07:58;31.70;;;19.17;;
22060;SDS011;11194;48.092;-1.382;2023-06-10T03:10:24;36.25;;;20.63;;
22060;SDS011;11194;48.092;-1.382;2023-06-10T03:12:50;34.17;;;20.85;;
22060;SDS011;11194;48.092;-1.382;2023-06-10T03:15:16;34.13;;;19.65;;
22060;SDS011;11194;48.092;-1.382;2023-06-10T03:17:42;39.25;;;20.90;;
22060;SDS011;11194;48.092;-1.382;2023-06-10T03:20:08;37.33;;;20.60;;
22060;SDS011;11194;48.092;-1.382;2023-06-10T03:22:35;36.08;;;19.85;;
22060;SDS011;11194;48.092;-1.382;2023-06-10T03:25:03;38.17;;;20.42;;
22060;SDS011;11194;48.092;-1.382;2023-06-10T03:27:29;35.45;;;20.50;;
22060;SDS011;11194;48.092;-1.382;2023-06-10T03:29:55;36.03;;;19.60;;
22060;SDS011;11194;48.092;-1.382;2023-06-10T03:32:21;31.13;;;19.55;;
22060;SDS011;11194;48.092;-1.382;2023-06-10T03:34:47;36.10;;;20.25;;
22060;SDS011;11194;48.092;-1.382;2023-06-10T03:37:13;35.53;;;19.75;;
22060;SDS011;11194;48.092;-1.382;2023-06-10T03:39:39;40.03;;;20.67;;
22060;SDS011;11194;48.092;-1.382;2023-06-10T03:42:06;34.22;;;19.55;;
22060;SDS011;11194;48.092;-1.382;2023-06-10T03:44:32;33.13;;;18.20;;
22060;SDS011;11194;48.092;-1.382;2023-06-10T03:46:58;34.25;;;19.65;;
22060;SDS011;11194;48.092;-1.382;2023-06-10T03:49:25;37.13;;;19.58;;
22060;SDS011;11194;48.092;-1.382;2023-06-10T03:51:53;30.92;;;18.90;;
22060;SDS011;11194;48.092;-1.382;2023-06-10T03:54:20;39.08;;;20.23;;
22060;SDS011;11194;48.092;-1.382;2023-06-10T03:56:46;35.80;;;20.40;;
22060;SDS011;11194;48.092;-1.382;2023-06-10T03:59:13;37.35;;;20.77;;
22060;SDS011;11194;48.092;-1.382;2023-06-10T04:01:39;35.88;;;19.90;;
22060;SDS011;11194;48.092;-1.382;2023-06-10T04:04:06;34.13;;;20.67;;
22060;SDS011;11194;48.092;-1.382;2023-06-10T04:06:32;35.95;;;20.10;;
22060;SDS011;11194;48.092;-1.382;2023-06-10T04:08:58;34.85;;;20.75;;
22060;SDS011;11194;48.092;-1.382;2023-06-10T04:11:24;37.58;;;21.77;;
22060;SDS011;11194;48.092;-1.382;2023-06-10T04:13:51;38.42;;;20.55;;
22060;SDS011;11194;48.092;-1.382;2023-06-10T04:16:17;36.28;;;20.80;;
22060;SDS011;11194;48.092;-1.382;2023-06-10T04:18:43;38.90;;;21.65;;
22060;SDS011;11194;48.092;-1.382;2023-06-10T04:21:09;37.58;;;21.38;;
22060;SDS011;11194;48.092;-1.382;2023-06-10T04:23:35;40.92;;;20.50;;
22060;SDS011;11194;48.092;-1.382;2023-06-10T04:26:02;41.50;;;21.75;;
22060;SDS011;11194;48.092;-1.382;2023-06-10T04:28:28;38.42;;;20.17;;
22060;SDS011;11194;48.092;-1.382;2023-06-10T04:30:54;37.67;;;21.08;;
22060;SDS011;11194;48.092;-1.382;2023-06-10T04:33:20;41.72;;;20.90;;
22060;SDS011;11194;48.092;-1.382;2023-06-10T04:35:46;37.70;;;20.27;;
22060;SDS011;11194;48.092;-1.382;2023-06-10T04:38:13;41.88;;;21.13;;
22060;SDS011;11194;48.092;-1.382;2023-06-10T04:40:39;45.55;;;22.52;;
22060;SDS011;11194;48.092;-1.382;2023-06-10T04:43:05;41.80;;;22.60;;
22060;SDS011;11194;48.092;-1.382;2023-06-10T04:45:31;34.10;;;20.90;;
22060;SDS011;11194;48.092;-1.382;2023-06-10T04:47:57;32.80;;;19.88;;
22060;SDS011;11194;48.092;-1.382;2023-06-10T04:50:23;35.85;;;20.05;;
22060;SDS011;11194;48.092;-1.382;2023-06-10T04:52:49;42.17;;;21.58;;
22060;SDS011;11194;48.092;-1.382;2023-06-10T04:55:16;34.75;;;20.25;;
22060;SDS011;11194;48.092;-1.382;2023-06-10T04:57:42;38.13;;;21.60;;
22060;SDS011;11194;48.092;-1.382;2023-06-10T05:00:08;40.10;;;20.67;;
22060;SDS011;11194;48.092;-1.382;2023-06-10T05:02:34;40.80;;;21.95;;
22060;SDS011;11194;48.092;-1.382;2023-06-10T05:05:00;39.15;;;21.30;;
22060;SDS011;11194;48.092;-1.382;2023-06-10T05:07:26;41.15;;;20.80;;
22060;SDS011;11194;48.092;-1.382;2023-06-10T05:09:52;37.28;;;21.45;;
22060;SDS011;11194;48.092;-1.382;2023-06-10T05:12:18;40.95;;;20.42;;
22060;SDS011;11194;48.092;-1.382;2023-06-10T05:14:44;38.17;;;21.70;;
22060;SDS011;11194;48.092;-1.382;2023-06-10T05:17:11;40.55;;;22.52;;
22060;SDS011;11194;48.092;-1.382;2023-06-10T05:19:38;36.85;;;20.45;;
22060;SDS011;11194;48.092;-1.382;2023-06-10T05:22:04;42.30;;;22.10;;
22060;SDS011;11194;48.092;-1.382;2023-06-10T05:24:30;39.03;;;21.90;;
22060;SDS011;11194;48.092;-1.382;2023-06-10T05:26:56;43.83;;;23.33;;
22060;SDS011;11194;48.092;-1.382;2023-06-10T05:29:22;52.38;;;27.52;;
22060;SDS011;11194;48.092;-1.382;2023-06-10T05:31:48;52.45;;;28.30;;
22060;SDS011;11194;48.092;-1.382;2023-06-10T05:34:14;47.83;;;26.45;;
22060;SDS011;11194;48.092;-1.382;2023-06-10T05:36:40;46.47;;;25.33;;
22060;SDS011;11194;48.092;-1.382;2023-06-10T05:39:06;48.35;;;25.30;;
22060;SDS011;11194;48.092;-1.382;2023-06-10T05:41:32;45.25;;;24.63;;
22060;SDS011;11194;48.092;-1.382;2023-06-10T05:43:58;48.53;;;24.25;;
22060;SDS011;11194;48.092;-1.382;2023-06-10T05:46:24;47.88;;;24.38;;
22060;SDS011;11194;48.092;-1.382;2023-06-10T05:48:50;48.25;;;25.08;;
22060;SDS011;11194;48.092;-1.382;2023-06-10T05:51:16;46.10;;;23.38;;
22060;SDS011;11194;48.092;-1.382;2023-06-10T05:53:42;47.22;;;24.02;;
22060;SDS011;11194;48.092;-1.382;2023-06-10T05:56:08;42.05;;;23.58;;
22060;SDS011;11194;48.092;-1.382;2023-06-10T05:58:34;54.92;;;24.73;;
22060;SDS011;11194;48.092;-1.382;2023-06-10T06:01:00;49.28;;;24.38;;
22060;SDS011;11194;48.092;-1.382;2023-06-10T06:03:26;43.42;;;23.70;;
22060;SDS011;11194;48.092;-1.382;2023-06-10T06:05:53;43.95;;;23.08;;
22060;SDS011;11194;48.092;-1.382;2023-06-10T06:08:19;40.58;;;21.83;;
22060;SDS011;11194;48.092;-1.382;2023-06-10T06:10:46;41.53;;;22.20;;
22060;SDS011;11194;48.092;-1.382;2023-06-10T06:13:12;46.85;;;23.10;;
22060;SDS011;11194;48.092;-1.382;2023-06-10T06:15:38;41.25;;;22.58;;
22060;SDS011;11194;48.092;-1.382;2023-06-10T06:18:05;46.72;;;23.27;;
22060;SDS011;11194;48.092;-1.382;2023-06-10T06:20:31;47.35;;;23.80;;
22060;SDS011;11194;48.092;-1.382;2023-06-10T06:22:57;40.97;;;23.52;;
22060;SDS011;11194;48.092;-1.382;2023-06-10T06:25:23;39.63;;;21.98;;
22060;SDS011;11194;48.092;-1.382;2023-06-10T06:27:49;41.78;;;22.58;;
22060;SDS011;11194;48.092;-1.382;2023-06-10T06:30:15;39.53;;;21.80;;
22060;SDS011;11194;48.092;-1.382;2023-06-10T06:32:41;40.17;;;22.48;;
22060;SDS011;11194;48.092;-1.382;2023-06-10T06:35:07;36.03;;;22.05;;
22060;SDS011;11194;48.092;-1.382;2023-06-10T06:37:33;40.40;;;22.67;;
22060;SDS011;11194;48.092;-1.382;2023-06-10T06:40:00;37.78;;;22.70;;
22060;SDS011;11194;48.092;-1.382;2023-06-10T06:42:26;38.67;;;22.23;;
22060;SDS011;11194;48.092;-1.382;2023-06-10T06:44:52;44.58;;;23.98;;
22060;SDS011;11194;48.092;-1.382;2023-06-10T06:47:18;40.22;;;23.27;;
22060;SDS011;11194;48.092;-1.382;2023-06-10T06:49:48;39.33;;;23.13;;
22060;SDS011;11194;48.092;-1.382;2023-06-10T06:52:17;39.13;;;22.20;;
22060;SDS011;11194;48.092;-1.382;2023-06-10T06:54:43;40.92;;;23.40;;
22060;SDS011;11194;48.092;-1.382;2023-06-10T06:57:09;40.75;;;22.75;;
22060;SDS011;11194;48.092;-1.382;2023-06-10T06:59:36;41.85;;;23.90;;
22060;SDS011;11194;48.092;-1.382;2023-06-10T07:02:02;41.92;;;23.45;;
22060;SDS011;11194;48.092;-1.382;2023-06-10T07:04:28;42.58;;;23.50;;
22060;SDS011;11194;48.092;-1.382;2023-06-10T07:06:55;39.95;;;22.98;;
22060;SDS011;11194;48.092;-1.382;2023-06-10T07:09:21;45.92;;;24.23;;
22060;SDS011;11194;48.092;-1.382;2023-06-10T07:11:47;41.22;;;23.73;;
22060;SDS011;11194;48.092;-1.382;2023-06-10T07:14:13;45.33;;;24.30;;
22060;SDS011;11194;48.092;-1.382;2023-06-10T07:16:39;39.55;;;23.55;;
22060;SDS011;11194;48.092;-1.382;2023-06-10T07:19:05;40.83;;;22.90;;
22060;SDS011;11194;48.092;-1.382;2023-06-10T07:21:31;44.33;;;24.05;;
22060;SDS011;11194;48.092;-1.382;2023-06-10T07:23:58;41.15;;;25.05;;
22060;SDS011;11194;48.092;-1.382;2023-06-10T07:26:24;42.78;;;24.80;;
22060;SDS011;11194;48.092;-1.382;2023-06-10T07:28:51;38.40;;;22.33;;
22060;SDS011;11194;48.092;-1.382;2023-06-10T07:31:17;39.78;;;22.33;;
22060;SDS011;11194;48.092;-1.382;2023-06-10T07:33:43;41.00;;;24.08;;
22060;SDS011;11194;48.092;-1.382;2023-06-10T07:36:09;40.60;;;24.25;;
22060;SDS011;11194;48.092;-1.382;2023-06-10T07:38:35;42.40;;;23.15;;
22060;SDS011;11194;48.092;-1.382;2023-06-10T07:41:01;40.17;;;22.95;;
22060;SDS011;11194;48.092;-1.382;2023-06-10T07:43:27;39.30;;;22.52;;
22060;SDS011;11194;48.092;-1.382;2023-06-10T07:45:53;38.70;;;21.45;;
22060;SDS011;11194;48.092;-1.382;2023-06-10T07:48:19;38.67;;;22.60;;
22060;SDS011;11194;48.092;-1.382;2023-06-10T07:50:45;38.35;;;21.30;;
22060;SDS011;11194;48.092;-1.382;2023-06-10T07:53:11;34.88;;;21.73;;
22060;SDS011;11194;48.092;-1.382;2023-06-10T07:55:37;35.05;;;22.15;;
22060;SDS011;11194;48.092;-1.382;2023-06-10T07:58:04;35.45;;;21.63;;
22060;SDS011;11194;48.092;-1.382;2023-06-10T08:00:30;37.03;;;22.50;;
22060;SDS011;11194;48.092;-1.382;2023-06-10T08:02:56;36.17;;;22.73;;
22060;SDS011;11194;48.092;-1.382;2023-06-10T08:05:22;36.03;;;22.02;;
22060;SDS011;11194;48.092;-1.382;2023-06-10T08:07:48;33.10;;;20.83;;
22060;SDS011;11194;48.092;-1.382;2023-06-10T08:10:14;33.85;;;21.15;;
22060;SDS011;11194;48.092;-1.382;2023-06-10T08:12:40;30.38;;;19.23;;
22060;SDS011;11194;48.092;-1.382;2023-06-10T08:15:06;30.38;;;19.90;;
22060;SDS011;11194;48.092;-1.382;2023-06-10T08:17:32;30.67;;;20.13;;
22060;SDS011;11194;48.092;-1.382;2023-06-10T08:19:58;32.30;;;19.67;;
22060;SDS011;11194;48.092;-1.382;2023-06-10T08:22:24;30.15;;;19.65;;
22060;SDS011;11194;48.092;-1.382;2023-06-10T08:24:50;31.52;;;19.13;;
22060;SDS011;11194;48.092;-1.382;2023-06-10T08:27:16;31.27;;;20.13;;
22060;SDS011;11194;48.092;-1.382;2023-06-10T08:29:42;30.02;;;18.67;;
22060;SDS011;11194;48.092;-1.382;2023-06-10T08:32:08;29.15;;;19.75;;
22060;SDS011;11194;48.092;-1.382;2023-06-10T08:34:35;27.52;;;18.67;;
22060;SDS011;11194;48.092;-1.382;2023-06-10T08:37:02;31.10;;;20.33;;
22060;SDS011;11194;48.092;-1.382;2023-06-10T08:39:28;30.08;;;19.13;;
22060;SDS011;11194;48.092;-1.382;2023-06-10T08:42:11;32.80;;;20.80;;
22060;SDS011;11194;48.092;-1.382;2023-06-10T08:44:38;31.05;;;19.38;;
22060;SDS011;11194;48.092;-1.382;2023-06-10T08:47:13;28.13;;;18.90;;
22060;SDS011;11194;48.092;-1.382;2023-06-10T08:49:43;30.55;;;19.05;;
22060;SDS011;11194;48.092;-1.382;2023-06-10T08:52:11;28.88;;;19.83;;
22060;SDS011;11194;48.092;-1.382;2023-06-10T08:54:40;31.85;;;19.73;;
22060;SDS011;11194;48.092;-1.382;2023-06-10T08:57:08;32.25;;;20.52;;
22060;SDS011;11194;48.092;-1.382;2023-06-10T08:59:34;33.20;;;20.50;;
22060;SDS011;11194;48.092;-1.382;2023-06-10T09:02:00;32.67;;;20.25;;
22060;SDS011;11194;48.092;-1.382;2023-06-10T09:04:28;29.27;;;19.65;;
22060;SDS011;11194;48.092;-1.382;2023-06-10T09:06:54;34.42;;;21.15;;
22060;SDS011;11194;48.092;-1.382;2023-06-10T09:09:22;30.05;;;19.30;;
22060;SDS011;11194;48.092;-1.382;2023-06-10T09:11:48;29.58;;;18.95;;
22060;SDS011;11194;48.092;-1.382;2023-06-10T09:14:14;28.90;;;18.50;;
22060;SDS011;11194;48.092;-1.382;2023-06-10T09:16:41;29.42;;;18.20;;
22060;SDS011;11194;48.092;-1.382;2023-06-10T09:19:08;27.95;;;18.17;;
22060;SDS011;11194;48.092;-1.382;2023-06-10T09:21:34;27.30;;;18.00;;
22060;SDS011;11194;48.092;-1.382;2023-06-10T09:24:03;29.02;;;19.65;;
22060;SDS011;11194;48.092;-1.382;2023-06-10T09:26:31;27.60;;;18.90;;
22060;SDS011;11194;48.092;-1.382;2023-06-10T09:29:05;30.70;;;19.73;;
22060;SDS011;11194;48.092;-1.382;2023-06-10T09:31:37;29.30;;;19.58;;
22060;SDS011;11194;48.092;-1.382;2023-06-10T09:34:07;30.40;;;20.58;;
22060;SDS011;11194;48.092;-1.382;2023-06-10T09:36:34;31.17;;;20.02;;
22060;SDS011;11194;48.092;-1.382;2023-06-10T09:39:01;29.85;;;20.52;;
22060;SDS011;11194;48.092;-1.382;2023-06-10T09:41:33;30.40;;;21.13;;
22060;SDS011;11194;48.092;-1.382;2023-06-10T09:44:05;31.95;;;21.42;;
22060;SDS011;11194;48.092;-1.382;2023-06-10T09:46:36;30.60;;;21.40;;
22060;SDS011;11194;48.092;-1.382;2023-06-10T09:49:02;31.20;;;20.63;;
22060;SDS011;11194;48.092;-1.382;2023-06-10T09:51:28;30.25;;;20.63;;
22060;SDS011;11194;48.092;-1.382;2023-06-10T09:53:55;30.85;;;20.98;;
22060;SDS011;11194;48.092;-1.382;2023-06-10T09:56:21;29.05;;;21.05;;
22060;SDS011;11194;48.092;-1.382;2023-06-10T09:58:58;31.23;;;20.92;;
22060;SDS011;11194;48.092;-1.382;2023-06-10T10:01:24;32.63;;;22.17;;
22060;SDS011;11194;48.092;-1.382;2023-06-10T10:03:50;32.47;;;21.02;;
22060;SDS011;11194;48.092;-1.382;2023-06-10T10:06:17;31.33;;;20.67;;
22060;SDS011;11194;48.092;-1.382;2023-06-10T10:08:47;29.52;;;21.45;;
22060;SDS011;11194;48.092;-1.382;2023-06-10T10:11:14;28.85;;;21.92;;
22060;SDS011;11194;48.092;-1.382;2023-06-10T10:13:42;27.70;;;18.58;;
22060;SDS011;11194;48.092;-1.382;2023-06-10T10:16:13;31.42;;;19.42;;
22060;SDS011;11194;48.092;-1.382;2023-06-10T10:18:42;25.90;;;18.45;;
22060;SDS011;11194;48.092;-1.382;2023-06-10T10:21:11;26.60;;;19.00;;
22060;SDS011;11194;48.092;-1.382;2023-06-10T10:23:40;27.35;;;19.25;;
22060;SDS011;11194;48.092;-1.382;2023-06-10T10:26:09;26.67;;;19.30;;
22060;SDS011;11194;48.092;-1.382;2023-06-10T10:31:23;26.27;;;19.58;;
22060;SDS011;11194;48.092;-1.382;2023-06-10T10:36:18;26.17;;;19.17;;
22060;SDS011;11194;48.092;-1.382;2023-06-10T10:38:45;27.30;;;19.55;;
22060;SDS011;11194;48.092;-1.382;2023-06-10T10:41:11;29.77;;;20.50;;
22060;SDS011;11194;48.092;-1.382;2023-06-10T10:43:43;32.15;;;22.80;;
22060;SDS011;11194;48.092;-1.382;2023-06-10T10:46:14;33.35;;;23.42;;
22060;SDS011;11194;48.092;-1.382;2023-06-10T10:48:40;34.30;;;23.15;;
22060;SDS011;11194;48.092;-1.382;2023-06-10T10:51:07;28.98;;;21.73;;
22060;SDS011;11194;48.092;-1.382;2023-06-10T10:53:33;35.83;;;20.98;;
22060;SDS011;11194;48.092;-1.382;2023-06-10T10:56:01;35.80;;;22.55;;
22060;SDS011;11194;48.092;-1.382;2023-06-10T10:58:30;30.33;;;21.77;;
22060;SDS011;11194;48.092;-1.382;2023-06-10T11:00:57;31.83;;;22.05;;
22060;SDS011;11194;48.092;-1.382;2023-06-10T11:03:24;28.65;;;21.92;;
22060;SDS011;11194;48.092;-1.382;2023-06-10T11:05:53;27.38;;;20.02;;
22060;SDS011;11194;48.092;-1.382;2023-06-10T11:10:54;27.88;;;20.05;;
22060;SDS011;11194;48.092;-1.382;2023-06-10T11:13:20;28.27;;;20.33;;
22060;SDS011;11194;48.092;-1.382;2023-06-10T11:15:50;26.35;;;19.88;;
22060;SDS011;11194;48.092;-1.382;2023-06-10T11:18:26;28.73;;;21.05;;
22060;SDS011;11194;48.092;-1.382;2023-06-10T11:20:57;28.13;;;20.48;;
22060;SDS011;11194;48.092;-1.382;2023-06-10T11:26:18;29.17;;;22.27;;
22060;SDS011;11194;48.092;-1.382;2023-06-10T11:31:18;25.88;;;19.33;;
22060;SDS011;11194;48.092;-1.382;2023-06-10T11:33:48;24.85;;;18.33;;
22060;SDS011;11194;48.092;-1.382;2023-06-10T11:36:17;26.20;;;19.08;;
22060;SDS011;11194;48.092;-1.382;2023-06-10T11:38:43;27.25;;;19.45;;
22060;SDS011;11194;48.092;-1.382;2023-06-10T11:41:10;30.42;;;20.50;;
22060;SDS011;11194;48.092;-1.382;2023-06-10T11:43:40;27.30;;;20.40;;
22060;SDS011;11194;48.092;-1.382;2023-06-10T11:48:56;28.63;;;20.65;;
22060;SDS011;11194;48.092;-1.382;2023-06-10T11:51:25;29.33;;;21.65;;
22060;SDS011;11194;48.092;-1.382;2023-06-10T11:54:10;32.40;;;22.90;;
22060;SDS011;11194;48.092;-1.382;2023-06-10T11:56:36;32.97;;;22.77;;
22060;SDS011;11194;48.092;-1.382;2023-06-10T11:59:03;34.50;;;23.73;;
22060;SDS011;11194;48.092;-1.382;2023-06-10T12:01:36;32.28;;;23.77;;
22060;SDS011;11194;48.092;-1.382;2023-06-10T12:04:03;33.75;;;24.15;;
22060;SDS011;11194;48.092;-1.382;2023-06-10T12:06:43;34.63;;;24.00;;
22060;SDS011;11194;48.092;-1.382;2023-06-10T12:09:25;33.83;;;23.10;;
22060;SDS011;11194;48.092;-1.382;2023-06-10T12:11:52;37.60;;;24.33;;
22060;SDS011;11194;48.092;-1.382;2023-06-10T12:17:03;35.40;;;23.80;;
22060;SDS011;11194;48.092;-1.382;2023-06-10T12:19:29;34.08;;;22.98;;
22060;SDS011;11194;48.092;-1.382;2023-06-10T12:21:56;35.42;;;22.35;;
22060;SDS011;11194;48.092;-1.382;2023-06-10T12:24:26;33.67;;;22.05;;
22060;SDS011;11194;48.092;-1.382;2023-06-10T12:26:53;35.30;;;21.02;;
22060;SDS011;11194;48.092;-1.382;2023-06-10T12:29:20;30.70;;;21.40;;
22060;SDS011;11194;48.092;-1.382;2023-06-10T12:31:57;32.53;;;20.85;;
22060;SDS011;11194;48.092;-1.382;2023-06-10T12:37:10;32.42;;;20.50;;
22060;SDS011;11194;48.092;-1.382;2023-06-10T12:39:38;30.75;;;20.60;;
22060;SDS011;11194;48.092;-1.382;2023-06-10T12:42:05;29.08;;;19.75;;
22060;SDS011;11194;48.092;-1.382;2023-06-10T12:44:37;25.05;;;18.23;;
22060;SDS011;11194;48.092;-1.382;2023-06-10T12:47:10;26.85;;;18.95;;
22060;SDS011;11194;48.092;-1.382;2023-06-10T12:49:40;24.45;;;17.25;;
22060;SDS011;11194;48.092;-1.382;2023-06-10T12:52:06;21.98;;;15.90;;
22060;SDS011;11194;48.092;-1.382;2023-06-10T12:54:32;22.75;;;16.08;;
22060;SDS011;11194;48.092;-1.382;2023-06-10T12:56:58;22.90;;;16.25;;
22060;SDS011;11194;48.092;-1.382;2023-06-10T12:59:24;25.08;;;16.10;;
22060;SDS011;11194;48.092;-1.382;2023-06-10T13:01:51;20.35;;;15.13;;
22060;SDS011;11194;48.092;-1.382;2023-06-10T13:04:17;20.65;;;15.57;;
22060;SDS011;11194;48.092;-1.382;2023-06-10T13:06:44;17.45;;;13.68;;
22060;SDS011;11194;48.092;-1.382;2023-06-10T13:09:12;20.02;;;14.52;;
22060;SDS011;11194;48.092;-1.382;2023-06-10T13:11:38;17.13;;;13.68;;
22060;SDS011;11194;48.092;-1.382;2023-06-10T13:14:05;18.40;;;12.65;;
22060;SDS011;11194;48.092;-1.382;2023-06-10T13:16:31;18.00;;;13.18;;
22060;SDS011;11194;48.092;-1.382;2023-06-10T13:18:57;15.82;;;12.07;;
22060;SDS011;11194;48.092;-1.382;2023-06-10T13:21:24;17.65;;;12.95;;
22060;SDS011;11194;48.092;-1.382;2023-06-10T13:23:50;16.25;;;12.07;;
22060;SDS011;11194;48.092;-1.382;2023-06-10T13:26:17;16.63;;;11.85;;
22060;SDS011;11194;48.092;-1.382;2023-06-10T13:28:43;15.20;;;12.07;;
22060;SDS011;11194;48.092;-1.382;2023-06-10T13:31:10;14.18;;;11.25;;
22060;SDS011;11194;48.092;-1.382;2023-06-10T13:33:36;15.82;;;11.98;;
22060;SDS011;11194;48.092;-1.382;2023-06-10T13:36:03;14.25;;;11.63;;
22060;SDS011;11194;48.092;-1.382;2023-06-10T13:38:32;13.45;;;11.25;;
22060;SDS011;11194;48.092;-1.382;2023-06-10T13:40:58;17.38;;;11.93;;
22060;SDS011;11194;48.092;-1.382;2023-06-10T13:43:25;13.98;;;11.00;;
22060;SDS011;11194;48.092;-1.382;2023-06-10T13:45:55;15.27;;;11.10;;
22060;SDS011;11194;48.092;-1.382;2023-06-10T13:48:21;13.27;;;11.30;;
22060;SDS011;11194;48.092;-1.382;2023-06-10T13:50:47;12.70;;;11.02;;
22060;SDS011;11194;48.092;-1.382;2023-06-10T13:53:14;15.75;;;12.25;;
22060;SDS011;11194;48.092;-1.382;2023-06-10T13:55:40;15.07;;;12.10;;
22060;SDS011;11194;48.092;-1.382;2023-06-10T13:58:06;14.57;;;11.68;;
22060;SDS011;11194;48.092;-1.382;2023-06-10T14:00:33;14.00;;;10.70;;
22060;SDS011;11194;48.092;-1.382;2023-06-10T14:02:59;14.48;;;10.82;;
22060;SDS011;11194;48.092;-1.382;2023-06-10T14:05:26;14.80;;;11.43;;
22060;SDS011;11194;48.092;-1.382;2023-06-10T14:07:52;15.55;;;11.32;;
22060;SDS011;11194;48.092;-1.382;2023-06-10T14:10:18;12.85;;;10.50;;
22060;SDS011;11194;48.092;-1.382;2023-06-10T14:12:44;13.93;;;10.20;;
22060;SDS011;11194;48.092;-1.382;2023-06-10T14:15:11;15.38;;;11.27;;
22060;SDS011;11194;48.092;-1.382;2023-06-10T14:17:37;13.38;;;10.45;;
22060;SDS011;11194;48.092;-1.382;2023-06-10T14:20:03;15.43;;;11.13;;
22060;SDS011;11194;48.092;-1.382;2023-06-10T14:22:32;13.23;;;10.48;;
22060;SDS011;11194;48.092;-1.382;2023-06-10T14:24:58;12.20;;;9.77;;
22060;SDS011;11194;48.092;-1.382;2023-06-10T14:27:24;12.80;;;11.27;;
22060;SDS011;11194;48.092;-1.382;2023-06-10T14:29:50;13.65;;;10.10;;